Aviation Digital Data Service (ADDS)

Output produced by METARs form (0211 UTC 22 April 2019)
found at http://www.aviationweather.gov/metar/data/
 
METAR text: NFFN 220200Z 26006KT 230V260 9999 SCT026TCU SCT047 BKN110 29/24 Q1010 TEMPO 3000 TSRA FEW018CB
Conditions at: NFFN (NANDI FIJI , FJ) observed 0200 UTC 22 April 2019
Temperature: 29.0°C (84°F)
Dewpoint: 24.0°C (75°F) [RH = 74%]
Pressure (altimeter): 29.82 inches Hg (1010.0 mb)
Winds: from the W (260 degrees) at 7 MPH (6 knots; 3.1 m/s)
Visibility: 6 or more miles (10+ km)
Ceiling: 11000 feet AGL
Clouds: scattered clouds at 2600 feet AGL
scattered clouds at 4700 feet AGL
broken clouds at 11000 feet AGL
Weather: no significant weather observed at this time

METAR text: NFFN 220100Z 27007KT 9999 SCT028 SCT048 BKN120 29/25 Q1010 NOSIG
Conditions at: NFFN (NANDI FIJI , FJ) observed 0100 UTC 22 April 2019
Temperature: 29.0°C (84°F)
Dewpoint: 25.0°C (77°F) [RH = 79%]
Pressure (altimeter): 29.82 inches Hg (1010.0 mb)
Winds: from the W (270 degrees) at 8 MPH (7 knots; 3.6 m/s)
Visibility: 6 or more miles (10+ km)
Ceiling: 12000 feet AGL
Clouds: scattered clouds at 2800 feet AGL
scattered clouds at 4800 feet AGL
broken clouds at 12000 feet AGL
Weather: no significant weather observed at this time

METAR text: NFFN 220000Z 08007KT 9999 SCT028 BKN120 30/25 Q1011 NOSIG
Conditions at: NFFN (NANDI FIJI , FJ) observed 0000 UTC 22 April 2019
Temperature: 30.0°C (86°F)
Dewpoint: 25.0°C (77°F) [RH = 75%]
Pressure (altimeter): 29.85 inches Hg (1011.0 mb)
Winds: from the E (80 degrees) at 8 MPH (7 knots; 3.6 m/s)
Visibility: 6 or more miles (10+ km)
Ceiling: 12000 feet AGL
Clouds: scattered clouds at 2800 feet AGL
broken clouds at 12000 feet AGL
Weather: no significant weather observed at this time

METAR text: NFFN 212300Z 09007KT 9999 FEW007 SCT027 BKN110 27/24 Q1012 NOSIG
Conditions at: NFFN (NANDI FIJI , FJ) observed 2300 UTC 21 April 2019
Temperature: 27.0°C (81°F)
Dewpoint: 24.0°C (75°F) [RH = 84%]
Pressure (altimeter): 29.88 inches Hg (1012.0 mb)
Winds: from the E (90 degrees) at 8 MPH (7 knots; 3.6 m/s)
Visibility: 6 or more miles (10+ km)
Ceiling: 11000 feet AGL
Clouds: few clouds at 700 feet AGL
scattered clouds at 2700 feet AGL
broken clouds at 11000 feet AGL
Weather: no significant weather observed at this time

METAR text: NFFN 212200Z 11006KT 9999 -SHRA FEW007 SCT027 BKN110 25/24 Q1013 TEMPO 5000 TSRA FEW018CB
Conditions at: NFFN (NANDI FIJI , FJ) observed 2200 UTC 21 April 2019
Temperature: 25.0°C (77°F)
Dewpoint: 24.0°C (75°F) [RH = 94%]
Pressure (altimeter): 29.91 inches Hg (1013.0 mb)
Winds: from the ESE (110 degrees) at 7 MPH (6 knots; 3.1 m/s)
Visibility: 6 or more miles (10+ km)
Ceiling: 11000 feet AGL
Clouds: few clouds at 700 feet AGL
scattered clouds at 2700 feet AGL
broken clouds at 11000 feet AGL
Weather: -SHRA  (light rain showers)

METAR text: NFFN 212100Z 10007KT 9999 -SHRA SCT027 BKN048 OVC110 24/23 Q1013 TEMPO 5000 TSRA FEW018CB
Conditions at: NFFN (NANDI FIJI , FJ) observed 2100 UTC 21 April 2019
Temperature: 24.0°C (75°F)
Dewpoint: 23.0°C (73°F) [RH = 94%]
Pressure (altimeter): 29.91 inches Hg (1013.0 mb)
Winds: from the E (100 degrees) at 8 MPH (7 knots; 3.6 m/s)
Visibility: 6 or more miles (10+ km)
Ceiling: 4800 feet AGL
Clouds: scattered clouds at 2700 feet AGL
broken clouds at 4800 feet AGL
overcast cloud deck at 11000 feet AGL
Weather: -SHRA  (light rain showers)

METAR text: NFFN 212000Z 11006KT 9999 -SHRA SCT028 SCT048 BKN110 24/24 Q1013 TEMPO 3000 TSRA FEW018CB
Conditions at: NFFN (NANDI FIJI , FJ) observed 2000 UTC 21 April 2019
Temperature: 24.0°C (75°F)
Dewpoint: 24.0°C (75°F) [RH = 100%]
Pressure (altimeter): 29.91 inches Hg (1013.0 mb)
Winds: from the ESE (110 degrees) at 7 MPH (6 knots; 3.1 m/s)
Visibility: 6 or more miles (10+ km)
Ceiling: 11000 feet AGL
Clouds: scattered clouds at 2800 feet AGL
scattered clouds at 4800 feet AGL
broken clouds at 11000 feet AGL
Weather: -SHRA  (light rain showers)

METAR text: NFFN 211900Z 11003KT 9999 -SHRA SCT028 SCT048 BKN110 24/24 Q1012 TEMPO 3000 TSRA FEW018CB
Conditions at: NFFN (NANDI FIJI , FJ) observed 1900 UTC 21 April 2019
Temperature: 24.0°C (75°F)
Dewpoint: 24.0°C (75°F) [RH = 100%]
Pressure (altimeter): 29.88 inches Hg (1012.0 mb)
Winds: from the ESE (110 degrees) at 3 MPH (3 knots; 1.5 m/s)
Visibility: 6 or more miles (10+ km)
Ceiling: 11000 feet AGL
Clouds: scattered clouds at 2800 feet AGL
scattered clouds at 4800 feet AGL
broken clouds at 11000 feet AGL
Weather: -SHRA  (light rain showers)

METAR text: NFFN 211800Z VRB02KT 9999 -SHRA SCT028 SCT048 BKN110 24/24 Q1012 TEMPO 3000 TSRA FEW018CB
Conditions at: NFFN (NANDI FIJI , FJ) observed 1800 UTC 21 April 2019
Temperature: 24.0°C (75°F)
Dewpoint: 24.0°C (75°F) [RH = 100%]
Pressure (altimeter): 29.88 inches Hg (1012.0 mb)
Winds: variable direction winds at 2 MPH (2 knots; 1.0 m/s)
Visibility: 6 or more miles (10+ km)
Ceiling: 11000 feet AGL
Clouds: scattered clouds at 2800 feet AGL
scattered clouds at 4800 feet AGL
broken clouds at 11000 feet AGL
Weather: -SHRA  (light rain showers)

METAR text: NFFN 211700Z VRB02KT 9999 -SHRA SCT028 SCT048 BKN110 24/24 Q1012 TEMPO 1700/1800 5000 SHRA TEMPO 1800/1900 3000 TSRA
Conditions at: NFFN (NANDI FIJI , FJ) observed 1700 UTC 21 April 2019
Temperature: 24.0°C (75°F)
Dewpoint: 24.0°C (75°F) [RH = 100%]
Pressure (altimeter): 29.88 inches Hg (1012.0 mb)
Winds: variable direction winds at 2 MPH (2 knots; 1.0 m/s)
Visibility: 6 or more miles (10+ km)
Ceiling: 11000 feet AGL
Clouds: scattered clouds at 2800 feet AGL
scattered clouds at 4800 feet AGL
broken clouds at 11000 feet AGL
Weather: -SHRA  (light rain showers)

METAR text: NFFN 211600Z VRB02KT 9999 -SHRA SCT028 SCT048 BKN110 24/24 Q1011 TEMPO 5000 SHRA
Conditions at: NFFN (NANDI FIJI , FJ) observed 1600 UTC 21 April 2019
Temperature: 24.0°C (75°F)
Dewpoint: 24.0°C (75°F) [RH = 100%]
Pressure (altimeter): 29.85 inches Hg (1011.0 mb)
Winds: variable direction winds at 2 MPH (2 knots; 1.0 m/s)
Visibility: 6 or more miles (10+ km)
Ceiling: 11000 feet AGL
Clouds: scattered clouds at 2800 feet AGL
scattered clouds at 4800 feet AGL
broken clouds at 11000 feet AGL
Weather: -SHRA  (light rain showers)

METAR text: NFFN 211500Z VRB01KT 9999 -SHRA SCT028 SCT048 BKN110 25/24 Q1011 TEMPO 1530/1700 5000 SHRA
Conditions at: NFFN (NANDI FIJI , FJ) observed 1500 UTC 21 April 2019
Temperature: 25.0°C (77°F)
Dewpoint: 24.0°C (75°F) [RH = 94%]
Pressure (altimeter): 29.85 inches Hg (1011.0 mb)
Winds: variable direction winds at 1 MPH (1 knots; 0.5 m/s)
Visibility: 6 or more miles (10+ km)
Ceiling: 11000 feet AGL
Clouds: scattered clouds at 2800 feet AGL
scattered clouds at 4800 feet AGL
broken clouds at 11000 feet AGL
Weather: -SHRA  (light rain showers)

METAR text: NFFN 211400Z 17003KT 140V230 9999 SCT028 SCT048 BKN110 25/24 Q1011 NOSIG
Conditions at: NFFN (NANDI FIJI , FJ) observed 1400 UTC 21 April 2019
Temperature: 25.0°C (77°F)
Dewpoint: 24.0°C (75°F) [RH = 94%]
Pressure (altimeter): 29.85 inches Hg (1011.0 mb)
Winds: from the S (170 degrees) at 3 MPH (3 knots; 1.5 m/s)
Visibility: 6 or more miles (10+ km)
Ceiling: 11000 feet AGL
Clouds: scattered clouds at 2800 feet AGL
scattered clouds at 4800 feet AGL
broken clouds at 11000 feet AGL
Weather: no significant weather observed at this time

METAR text: NFFN 211300Z 10003KT 060V140 9999 SCT028 SCT048 BKN110 25/24 Q1012 NOSIG
Conditions at: NFFN (NANDI FIJI , FJ) observed 1300 UTC 21 April 2019
Temperature: 25.0°C (77°F)
Dewpoint: 24.0°C (75°F) [RH = 94%]
Pressure (altimeter): 29.88 inches Hg (1012.0 mb)
Winds: from the E (100 degrees) at 3 MPH (3 knots; 1.5 m/s)
Visibility: 6 or more miles (10+ km)
Ceiling: 11000 feet AGL
Clouds: scattered clouds at 2800 feet AGL
scattered clouds at 4800 feet AGL
broken clouds at 11000 feet AGL
Weather: no significant weather observed at this time

METAR text: NFFN 211200Z 09004KT 9999 SCT028 SCT048 BKN110 25/24 Q1012 NOSIG
Conditions at: NFFN (NANDI FIJI , FJ) observed 1200 UTC 21 April 2019
Temperature: 25.0°C (77°F)
Dewpoint: 24.0°C (75°F) [RH = 94%]
Pressure (altimeter): 29.88 inches Hg (1012.0 mb)
Winds: from the E (90 degrees) at 5 MPH (4 knots; 2.1 m/s)
Visibility: 6 or more miles (10+ km)
Ceiling: 11000 feet AGL
Clouds: scattered clouds at 2800 feet AGL
scattered clouds at 4800 feet AGL
broken clouds at 11000 feet AGL
Weather: no significant weather observed at this time

METAR text: NFFN 211100Z 11003KT 9999 SCT028 SCT048 BKN110 25/24 Q1012 NOSIG
Conditions at: NFFN (NANDI FIJI , FJ) observed 1100 UTC 21 April 2019
Temperature: 25.0°C (77°F)
Dewpoint: 24.0°C (75°F) [RH = 94%]
Pressure (altimeter): 29.88 inches Hg (1012.0 mb)
Winds: from the ESE (110 degrees) at 3 MPH (3 knots; 1.5 m/s)
Visibility: 6 or more miles (10+ km)
Ceiling: 11000 feet AGL
Clouds: scattered clouds at 2800 feet AGL
scattered clouds at 4800 feet AGL
broken clouds at 11000 feet AGL
Weather: no significant weather observed at this time

METAR text: NFFN 211000Z VRB02KT 9999 SCT026 SCT047 BKN110 25/24 Q1012 NOSIG
Conditions at: NFFN (NANDI FIJI , FJ) observed 1000 UTC 21 April 2019
Temperature: 25.0°C (77°F)
Dewpoint: 24.0°C (75°F) [RH = 94%]
Pressure (altimeter): 29.88 inches Hg (1012.0 mb)
Winds: variable direction winds at 2 MPH (2 knots; 1.0 m/s)
Visibility: 6 or more miles (10+ km)
Ceiling: 11000 feet AGL
Clouds: scattered clouds at 2600 feet AGL
scattered clouds at 4700 feet AGL
broken clouds at 11000 feet AGL
Weather: no significant weather observed at this time

METAR text: NFFN 210900Z VRB02KT 9999 SCT025 SCT046 BKN110 25/24 Q1012 NOSIG
Conditions at: NFFN (NANDI FIJI , FJ) observed 0900 UTC 21 April 2019
Temperature: 25.0°C (77°F)
Dewpoint: 24.0°C (75°F) [RH = 94%]
Pressure (altimeter): 29.88 inches Hg (1012.0 mb)
Winds: variable direction winds at 2 MPH (2 knots; 1.0 m/s)
Visibility: 6 or more miles (10+ km)
Ceiling: 11000 feet AGL
Clouds: scattered clouds at 2500 feet AGL
scattered clouds at 4600 feet AGL
broken clouds at 11000 feet AGL
Weather: no significant weather observed at this time

METAR text: NFFN 210800Z 13005KT 9999 SCT025 SCT045 BKN110 25/24 Q1011 NOSIG
Conditions at: NFFN (NANDI FIJI , FJ) observed 0800 UTC 21 April 2019
Temperature: 25.0°C (77°F)
Dewpoint: 24.0°C (75°F) [RH = 94%]
Pressure (altimeter): 29.85 inches Hg (1011.0 mb)
Winds: from the SE (130 degrees) at 6 MPH (5 knots; 2.6 m/s)
Visibility: 6 or more miles (10+ km)
Ceiling: 11000 feet AGL
Clouds: scattered clouds at 2500 feet AGL
scattered clouds at 4500 feet AGL
broken clouds at 11000 feet AGL
Weather: no significant weather observed at this time

METAR text: NFFN 210700Z 01004KT 9999 -SHRA SCT024 SCT045 BKN110 25/24 Q1011 TEMPO 5000 SHRA
Conditions at: NFFN (NANDI FIJI , FJ) observed 0700 UTC 21 April 2019
Temperature: 25.0°C (77°F)
Dewpoint: 24.0°C (75°F) [RH = 94%]
Pressure (altimeter): 29.85 inches Hg (1011.0 mb)
Winds: from the N (10 degrees) at 5 MPH (4 knots; 2.1 m/s)
Visibility: 6 or more miles (10+ km)
Ceiling: 11000 feet AGL
Clouds: scattered clouds at 2400 feet AGL
scattered clouds at 4500 feet AGL
broken clouds at 11000 feet AGL
Weather: -SHRA  (light rain showers)

METAR text: NFFN 210600Z VRB02KT 9999 FEW007 SCT024TCU BKN110 25/25 Q1011 TEMPO 5000 SHRA
Conditions at: NFFN (NANDI FIJI , FJ) observed 0600 UTC 21 April 2019
Temperature: 25.0°C (77°F)
Dewpoint: 25.0°C (77°F) [RH = 100%]
Pressure (altimeter): 29.85 inches Hg (1011.0 mb)
Winds: variable direction winds at 2 MPH (2 knots; 1.0 m/s)
Visibility: 6 or more miles (10+ km)
Ceiling: 11000 feet AGL
Clouds: few clouds at 700 feet AGL
scattered clouds at 2400 feet AGL
broken clouds at 11000 feet AGL
Weather: no significant weather observed at this time

METAR text: NFFN 210500Z 16005KT 9999 -SHRA FEW019CB SCT024TCU BKN110 25/24 Q1011 TEMPO 5000 SHRA
Conditions at: NFFN (NANDI FIJI , FJ) observed 0500 UTC 21 April 2019
Temperature: 25.0°C (77°F)
Dewpoint: 24.0°C (75°F) [RH = 94%]
Pressure (altimeter): 29.85 inches Hg (1011.0 mb)
Winds: from the SSE (160 degrees) at 6 MPH (5 knots; 2.6 m/s)
Visibility: 6 or more miles (10+ km)
Ceiling: 11000 feet AGL
Clouds: few clouds at 1900 feet AGL
scattered clouds at 2400 feet AGL
broken clouds at 11000 feet AGL
Weather: -SHRA  (light rain showers)

METAR text: NFFN 210400Z 29007KT 9999 -TSRA FEW019CB SCT024TCU BKN042 26/25 Q1010 TEMPO 3000 TSRA
Conditions at: NFFN (NANDI FIJI , FJ) observed 0400 UTC 21 April 2019
Temperature: 26.0°C (79°F)
Dewpoint: 25.0°C (77°F) [RH = 94%]
Pressure (altimeter): 29.82 inches Hg (1010.0 mb)
Winds: from the WNW (290 degrees) at 8 MPH (7 knots; 3.6 m/s)
Visibility: 6 or more miles (10+ km)
Ceiling: 4200 feet AGL
Clouds: few clouds at 1900 feet AGL
scattered clouds at 2400 feet AGL
broken clouds at 4200 feet AGL
Weather: -TSRA  (light rain associated with thunderstorm(s))

METAR text: NFFN 210340Z 33007KT 9999 -TSRA FEW020CB SCT024TCU BKN042 26/26 Q1010 TEMPO 3000 TSRA
Conditions at: NFFN (NANDI FIJI , FJ) observed 0340 UTC 21 April 2019
Temperature: 26.0°C (79°F)
Dewpoint: 26.0°C (79°F) [RH = 100%]
Pressure (altimeter): 29.82 inches Hg (1010.0 mb)
Winds: from the NNW (330 degrees) at 8 MPH (7 knots; 3.6 m/s)
Visibility: 6 or more miles (10+ km)
Ceiling: 4200 feet AGL
Clouds: few clouds at 2000 feet AGL
scattered clouds at 2400 feet AGL
broken clouds at 4200 feet AGL
Weather: -TSRA  (light rain associated with thunderstorm(s))

METAR text: NFFN 210300Z 25006KT 9999 FEW020CB SCT024TCU BKN042 29/25 Q1010 TEMPO 3000 TSRA
Conditions at: NFFN (NANDI FIJI , FJ) observed 0300 UTC 21 April 2019
Temperature: 29.0°C (84°F)
Dewpoint: 25.0°C (77°F) [RH = 79%]
Pressure (altimeter): 29.82 inches Hg (1010.0 mb)
Winds: from the WSW (250 degrees) at 7 MPH (6 knots; 3.1 m/s)
Visibility: 6 or more miles (10+ km)
Ceiling: 4200 feet AGL
Clouds: few clouds at 2000 feet AGL
scattered clouds at 2400 feet AGL
broken clouds at 4200 feet AGL
Weather: no significant weather observed at this time

METAR text: NFFN 210200Z 27008KT 9999 SCT022TCU BKN042 BKN120 29/25 Q1010 TEMPO 3000 TSRA FEW018CB
Conditions at: NFFN (NANDI FIJI , FJ) observed 0200 UTC 21 April 2019
Temperature: 29.0°C (84°F)
Dewpoint: 25.0°C (77°F) [RH = 79%]
Pressure (altimeter): 29.82 inches Hg (1010.0 mb)
Winds: from the W (270 degrees) at 9 MPH (8 knots; 4.1 m/s)
Visibility: 6 or more miles (10+ km)
Ceiling: 4200 feet AGL
Clouds: scattered clouds at 2200 feet AGL
broken clouds at 4200 feet AGL
broken clouds at 12000 feet AGL
Weather: no significant weather observed at this time

METAR text: NFFN 210100Z 28007KT 9999 SCT028 BKN047 BKN120 29/24 Q1010 NOSIG
Conditions at: NFFN (NANDI FIJI , FJ) observed 0100 UTC 21 April 2019
Temperature: 29.0°C (84°F)
Dewpoint: 24.0°C (75°F) [RH = 74%]
Pressure (altimeter): 29.82 inches Hg (1010.0 mb)
Winds: from the W (280 degrees) at 8 MPH (7 knots; 3.6 m/s)
Visibility: 6 or more miles (10+ km)
Ceiling: 4700 feet AGL
Clouds: scattered clouds at 2800 feet AGL
broken clouds at 4700 feet AGL
broken clouds at 12000 feet AGL
Weather: no significant weather observed at this time

METAR text: NFFN 210000Z 26006KT 9999 SCT030 SCT048 BKN120 30/24 Q1011 NOSIG
Conditions at: NFFN (NANDI FIJI , FJ) observed 0000 UTC 21 April 2019
Temperature: 30.0°C (86°F)
Dewpoint: 24.0°C (75°F) [RH = 70%]
Pressure (altimeter): 29.85 inches Hg (1011.0 mb)
Winds: from the W (260 degrees) at 7 MPH (6 knots; 3.1 m/s)
Visibility: 6 or more miles (10+ km)
Ceiling: 12000 feet AGL
Clouds: scattered clouds at 3000 feet AGL
scattered clouds at 4800 feet AGL
broken clouds at 12000 feet AGL
Weather: no significant weather observed at this time

METAR text: NFFN 202300Z VRB02KT 9999 FEW030 SCT050 BKN120 29/25 Q1012 NOSIG
Conditions at: NFFN (NANDI FIJI , FJ) observed 2300 UTC 20 April 2019
Temperature: 29.0°C (84°F)
Dewpoint: 25.0°C (77°F) [RH = 79%]
Pressure (altimeter): 29.88 inches Hg (1012.0 mb)
Winds: variable direction winds at 2 MPH (2 knots; 1.0 m/s)
Visibility: 6 or more miles (10+ km)
Ceiling: 12000 feet AGL
Clouds: few clouds at 3000 feet AGL
scattered clouds at 5000 feet AGL
broken clouds at 12000 feet AGL
Weather: no significant weather observed at this time

METAR text: NFFN 202200Z 30003KT 9999 FEW030 SCT050 BKN120 28/25 Q1012 NOSIG
Conditions at: NFFN (NANDI FIJI , FJ) observed 2200 UTC 20 April 2019
Temperature: 28.0°C (82°F)
Dewpoint: 25.0°C (77°F) [RH = 84%]
Pressure (altimeter): 29.88 inches Hg (1012.0 mb)
Winds: from the WNW (300 degrees) at 3 MPH (3 knots; 1.5 m/s)
Visibility: 6 or more miles (10+ km)
Ceiling: 12000 feet AGL
Clouds: few clouds at 3000 feet AGL
scattered clouds at 5000 feet AGL
broken clouds at 12000 feet AGL
Weather: no significant weather observed at this time

METAR text: NFFN 202100Z 12007KT 9999 SCT030 BKN048 27/24 Q1012 NOSIG
Conditions at: NFFN (NANDI FIJI , FJ) observed 2100 UTC 20 April 2019
Temperature: 27.0°C (81°F)
Dewpoint: 24.0°C (75°F) [RH = 84%]
Pressure (altimeter): 29.88 inches Hg (1012.0 mb)
Winds: from the ESE (120 degrees) at 8 MPH (7 knots; 3.6 m/s)
Visibility: 6 or more miles (10+ km)
Ceiling: 4800 feet AGL
Clouds: scattered clouds at 3000 feet AGL
broken clouds at 4800 feet AGL
Weather: no significant weather observed at this time

METAR text: NFFN 202000Z 12006KT 9999 FEW027 SCT048 BKN120 26/23 Q1011 NOSIG
Conditions at: NFFN (NANDI FIJI , FJ) observed 2000 UTC 20 April 2019
Temperature: 26.0°C (79°F)
Dewpoint: 23.0°C (73°F) [RH = 84%]
Pressure (altimeter): 29.85 inches Hg (1011.0 mb)
Winds: from the ESE (120 degrees) at 7 MPH (6 knots; 3.1 m/s)
Visibility: 6 or more miles (10+ km)
Ceiling: 12000 feet AGL
Clouds: few clouds at 2700 feet AGL
scattered clouds at 4800 feet AGL
broken clouds at 12000 feet AGL
Weather: no significant weather observed at this time

METAR text: NFFN 201900Z 11003KT 9999 SCT027 SCT048 BKN120 24/23 Q1011 NOSIG
Conditions at: NFFN (NANDI FIJI , FJ) observed 1900 UTC 20 April 2019
Temperature: 24.0°C (75°F)
Dewpoint: 23.0°C (73°F) [RH = 94%]
Pressure (altimeter): 29.85 inches Hg (1011.0 mb)
Winds: from the ESE (110 degrees) at 3 MPH (3 knots; 1.5 m/s)
Visibility: 6 or more miles (10+ km)
Ceiling: 12000 feet AGL
Clouds: scattered clouds at 2700 feet AGL
scattered clouds at 4800 feet AGL
broken clouds at 12000 feet AGL
Weather: no significant weather observed at this time

METAR text: NFFN 201800Z 04003KT 9999 SCT027 SCT048 BKN120 25/22 Q1010 NOSIG
Conditions at: NFFN (NANDI FIJI , FJ) observed 1800 UTC 20 April 2019
Temperature: 25.0°C (77°F)
Dewpoint: 22.0°C (72°F) [RH = 83%]
Pressure (altimeter): 29.82 inches Hg (1010.0 mb)
Winds: from the NE (40 degrees) at 3 MPH (3 knots; 1.5 m/s)
Visibility: 6 or more miles (10+ km)
Ceiling: 12000 feet AGL
Clouds: scattered clouds at 2700 feet AGL
scattered clouds at 4800 feet AGL
broken clouds at 12000 feet AGL
Weather: no significant weather observed at this time

METAR text: NFFN 201700Z 11004KT 9999 SCT024 SCT045 BKN100 25/21 Q1010 NOSIG
Conditions at: NFFN (NANDI FIJI , FJ) observed 1700 UTC 20 April 2019
Temperature: 25.0°C (77°F)
Dewpoint: 21.0°C (70°F) [RH = 79%]
Pressure (altimeter): 29.82 inches Hg (1010.0 mb)
Winds: from the ESE (110 degrees) at 5 MPH (4 knots; 2.1 m/s)
Visibility: 6 or more miles (10+ km)
Ceiling: 10000 feet AGL
Clouds: scattered clouds at 2400 feet AGL
scattered clouds at 4500 feet AGL
broken clouds at 10000 feet AGL
Weather: no significant weather observed at this time

METAR text: NFFN 201600Z 12006KT 9999 SCT024 SCT045 BKN100 25/22 Q1009 NOSIG
Conditions at: NFFN (NANDI FIJI , FJ) observed 1600 UTC 20 April 2019
Temperature: 25.0°C (77°F)
Dewpoint: 22.0°C (72°F) [RH = 83%]
Pressure (altimeter): 29.79 inches Hg (1009.0 mb)
Winds: from the ESE (120 degrees) at 7 MPH (6 knots; 3.1 m/s)
Visibility: 6 or more miles (10+ km)
Ceiling: 10000 feet AGL
Clouds: scattered clouds at 2400 feet AGL
scattered clouds at 4500 feet AGL
broken clouds at 10000 feet AGL
Weather: no significant weather observed at this time

METAR text: NFFN 201500Z 10007KT 9999 SCT024 BKN045 BKN100 25/22 Q1010 NOSIG
Conditions at: NFFN (NANDI FIJI , FJ) observed 1500 UTC 20 April 2019
Temperature: 25.0°C (77°F)
Dewpoint: 22.0°C (72°F) [RH = 83%]
Pressure (altimeter): 29.82 inches Hg (1010.0 mb)
Winds: from the E (100 degrees) at 8 MPH (7 knots; 3.6 m/s)
Visibility: 6 or more miles (10+ km)
Ceiling: 4500 feet AGL
Clouds: scattered clouds at 2400 feet AGL
broken clouds at 4500 feet AGL
broken clouds at 10000 feet AGL
Weather: no significant weather observed at this time

Forecast for: NFFN (NANDI FIJI , FJ)
Text: TAF NFFN 212318Z 2200/2224 13007KT 9999 -SHRA SCT025 SCT045 BKN100
Forecast period: 0000 UTC 22 April 2019 to 0000 UTC 23 April 2019
Forecast type: FROM: standard forecast or significant change
Winds: from the SE (130 degrees) at 8 MPH (7 knots; 3.6 m/s)
Visibility: 6 or more miles 10+ km)
Ceiling: 10000 feet AGL
Clouds: scattered clouds at 2500 feet AGL
scattered clouds at 4500 feet AGL
broken clouds at 10000 feet AGL
Weather: -SHRA  (light rain showers)
Text: TEMPO 2202/2207 3000 TSRA BKN010 FEW018CB
Forecast period: 0200 to 0700 UTC 22 April 2019
Forecast type: TEMPORARY: The following changes expected for less than half the time period
Visibility: 1.86 miles (2.99 km)
Ceiling: 1000 feet AGL
Clouds: broken clouds at 1000 feet AGL
few clouds at 1800 feet AGL
Weather: TSRA  (rain associated with thunderstorm(s))
Text: TEMPO 2207/2216 5000 SHRA BKN015
Forecast period: 0700 to 1600 UTC 22 April 2019
Forecast type: TEMPORARY: The following changes expected for less than half the time period
Visibility: 3 miles (5 km)
Ceiling: 1500 feet AGL
Clouds: broken clouds at 1500 feet AGL
Weather: SHRA  (rain showers)
Text: TEMPO 2216/2224 3000 TSRA BKN010 FEW018CB
Forecast period: 1600 UTC 22 April 2019 to 0000 UTC 23 April 2019
Forecast type: TEMPORARY: The following changes expected for less than half the time period
Visibility: 1.86 miles (2.99 km)
Ceiling: 1000 feet AGL
Clouds: broken clouds at 1000 feet AGL
few clouds at 1800 feet AGL
Weather: TSRA  (rain associated with thunderstorm(s))